createdAt,value
2023-01-09T00:01:47.119Z,1.97
2023-01-09T00:04:15.662Z,2.07
2023-01-09T00:06:43.634Z,2.10
2023-01-09T00:09:12.867Z,2.10
2023-01-09T00:11:40.733Z,2.30
2023-01-09T00:14:10.918Z,1.87
2023-01-09T00:16:38.876Z,2.33
2023-01-09T00:19:06.716Z,2.30
2023-01-09T00:21:35.223Z,2.07
2023-01-09T00:24:03.107Z,1.90
2023-01-09T00:26:32.549Z,2.00
2023-01-09T00:29:00.307Z,2.00
2023-01-09T00:31:28.300Z,2.20
2023-01-09T00:34:00.414Z,2.30
2023-01-09T00:36:31.433Z,2.20
2023-01-09T00:38:59.876Z,2.60
2023-01-09T00:41:31.322Z,2.40
2023-01-09T00:44:10.666Z,2.10
2023-01-09T00:46:41.828Z,2.33
2023-01-09T00:49:11.058Z,2.70
2023-01-09T00:51:41.217Z,2.40
2023-01-09T00:54:12.792Z,2.30
2023-01-09T00:56:40.966Z,2.27
2023-01-09T00:59:10.623Z,2.57
2023-01-09T01:01:38.508Z,2.23
2023-01-09T01:04:20.232Z,2.40
2023-01-09T01:07:05.636Z,2.70
2023-01-09T01:09:33.382Z,2.00
2023-01-09T01:12:06.986Z,1.93
2023-01-09T01:14:36.870Z,2.30
2023-01-09T01:17:05.753Z,1.70
2023-01-09T01:19:34.909Z,1.70
2023-01-09T01:22:03.532Z,1.83
2023-01-09T01:24:31.834Z,1.70
2023-01-09T01:26:59.615Z,1.50
2023-01-09T01:29:27.528Z,1.70
2023-01-09T01:31:56.708Z,1.30
2023-01-09T01:34:24.618Z,1.60
2023-01-09T01:36:52.507Z,1.40
2023-01-09T01:39:20.298Z,1.53
2023-01-09T01:41:48.222Z,1.47
2023-01-09T01:44:53.518Z,1.70
2023-01-09T01:47:24.967Z,2.20
2023-01-09T01:49:53.749Z,2.10
2023-01-09T01:52:22.416Z,2.50
2023-01-09T01:54:50.427Z,2.27
2023-01-09T01:57:18.568Z,2.60
2023-01-09T01:59:51.058Z,2.60
2023-01-09T02:02:21.586Z,2.80
2023-01-09T02:04:53.307Z,3.13
2023-01-09T02:07:21.117Z,3.00
2023-01-09T02:09:49.882Z,3.10
2023-01-09T02:12:20.011Z,3.20
2023-01-09T02:14:49.310Z,3.10
2023-01-09T02:17:29.815Z,3.23
2023-01-09T02:20:34.368Z,3.00
2023-01-09T02:23:26.659Z,2.70
2023-01-09T02:26:19.475Z,2.47
2023-01-09T02:29:11.406Z,2.67
2023-01-09T02:31:48.295Z,3.10
2023-01-09T02:34:24.477Z,2.80
2023-01-09T02:37:02.189Z,2.73
2023-01-09T02:39:38.737Z,2.30
2023-01-09T02:42:13.964Z,2.20
2023-01-09T02:44:43.806Z,2.20
2023-01-09T02:47:38.463Z,2.23
2023-01-09T02:50:10.607Z,2.20
2023-01-09T02:52:53.476Z,1.97
2023-01-09T02:55:36.204Z,2.10
2023-01-09T02:58:11.237Z,1.80
2023-01-09T03:00:51.548Z,2.10
2023-01-09T03:03:25.239Z,2.00
2023-01-09T03:06:01.828Z,2.20
2023-01-09T03:08:36.216Z,2.27
2023-01-09T03:11:07.606Z,2.13
2023-01-09T03:13:40.997Z,1.60
2023-01-09T03:16:12.876Z,1.70
2023-01-09T03:18:43.503Z,1.67
2023-01-09T03:21:12.859Z,1.70
2023-01-09T03:23:48.955Z,1.40
2023-01-09T03:26:16.824Z,1.47
2023-01-09T03:28:45.475Z,1.40
2023-01-09T03:31:14.120Z,1.30
2023-01-09T03:33:43.915Z,1.10
2023-01-09T03:36:14.592Z,1.23
2023-01-09T03:38:45.558Z,0.90
2023-01-09T03:41:13.635Z,1.03
2023-01-09T03:43:41.670Z,1.30
2023-01-09T03:46:09.580Z,0.90
2023-01-09T03:48:37.331Z,0.80
2023-01-09T03:51:06.715Z,0.70
2023-01-09T03:53:34.727Z,0.90
2023-01-09T03:56:02.684Z,0.70
2023-01-09T03:58:30.520Z,0.50
2023-01-09T04:01:00.020Z,0.60
2023-01-09T04:03:27.983Z,0.40
2023-01-09T04:05:56.063Z,0.40
2023-01-09T04:08:25.211Z,0.50
2023-01-09T04:10:53.181Z,0.43
2023-01-09T04:13:21.261Z,0.43
2023-01-09T04:15:49.410Z,0.43
2023-01-09T04:18:17.711Z,0.40
2023-01-09T04:20:48.383Z,0.50
2023-01-09T04:23:16.362Z,0.60
2023-01-09T04:25:47.613Z,0.40
2023-01-09T04:28:15.461Z,0.30
2023-01-09T04:30:45.409Z,0.30
2023-01-09T04:33:13.153Z,0.40
2023-01-09T04:35:40.890Z,0.40
2023-01-09T04:38:08.661Z,0.40
2023-01-09T04:40:36.484Z,0.37
2023-01-09T04:43:05.603Z,0.60
2023-01-09T04:45:33.465Z,0.50
2023-01-09T04:48:01.251Z,0.50
2023-01-09T04:50:31.020Z,0.60
2023-01-09T04:52:59.658Z,0.60
2023-01-09T04:55:27.571Z,0.50
2023-01-09T04:57:55.273Z,0.40
2023-01-09T05:00:24.848Z,0.57
2023-01-09T05:02:52.735Z,0.67
2023-01-09T05:05:20.781Z,0.50
2023-01-09T05:07:48.598Z,0.37
2023-01-09T05:10:16.692Z,0.40
2023-01-09T05:12:44.460Z,0.50
2023-01-09T05:15:12.982Z,0.40
2023-01-09T05:17:42.193Z,0.40
2023-01-09T05:20:10.925Z,0.40
2023-01-09T05:22:38.628Z,0.50
2023-01-09T05:25:07.380Z,0.60
2023-01-09T05:27:35.203Z,0.50
2023-01-09T05:30:04.840Z,0.40
2023-01-09T05:32:32.735Z,0.50
2023-01-09T05:35:01.877Z,0.67
2023-01-09T05:37:30.715Z,0.50
2023-01-09T05:39:58.453Z,0.57
2023-01-09T05:42:26.747Z,0.60
2023-01-09T05:44:54.482Z,0.40
2023-01-09T05:47:22.336Z,0.50
2023-01-09T05:49:50.253Z,0.40
2023-01-09T05:52:19.411Z,0.50
2023-01-09T05:54:47.147Z,0.50
2023-01-09T05:57:14.970Z,0.40
2023-01-09T05:59:42.822Z,0.60
2023-01-09T06:02:10.800Z,0.50
2023-01-09T06:04:38.787Z,0.60
2023-01-09T06:07:06.689Z,0.40
2023-01-09T06:09:36.188Z,0.43
2023-01-09T06:12:04.160Z,0.97
2023-01-09T06:14:32.011Z,0.50
2023-01-09T06:17:00.267Z,0.30
2023-01-09T06:19:28.178Z,0.40
2023-01-09T06:21:55.928Z,0.50
2023-01-09T06:24:23.812Z,0.60
2023-01-09T06:26:52.905Z,0.60
2023-01-09T06:29:21.001Z,0.80
2023-01-09T06:31:48.815Z,0.70
2023-01-09T06:34:16.608Z,0.80
2023-01-09T06:36:44.384Z,0.60
2023-01-09T06:39:14.038Z,0.60
2023-01-09T06:41:41.846Z,0.40
2023-01-09T06:44:12.176Z,0.50
2023-01-09T06:46:43.007Z,0.70
2023-01-09T06:49:11.118Z,0.63
2023-01-09T06:51:39.063Z,0.70
2023-01-09T06:54:06.915Z,0.60
2023-01-09T06:56:34.743Z,0.70
2023-01-09T06:59:02.514Z,1.07
2023-01-09T07:01:31.714Z,0.90
2023-01-09T07:03:59.688Z,0.70
2023-01-09T07:06:27.997Z,0.70
2023-01-09T07:08:55.859Z,0.70
2023-01-09T07:11:23.703Z,0.70
2023-01-09T07:13:51.504Z,0.70
2023-01-09T07:16:19.359Z,0.70
2023-01-09T07:18:48.517Z,0.70
2023-01-09T07:21:16.675Z,0.97
2023-01-09T07:23:44.785Z,1.33
2023-01-09T07:26:12.550Z,1.00
2023-01-09T07:28:40.373Z,0.70
2023-01-09T07:31:08.402Z,1.13
2023-01-09T07:33:36.579Z,0.70
2023-01-09T07:36:07.492Z,1.00
2023-01-09T07:38:37.410Z,0.80
2023-01-09T07:41:05.449Z,0.80
2023-01-09T07:43:33.355Z,1.00
2023-01-09T07:46:03.480Z,0.80
2023-01-09T07:48:31.419Z,1.43
2023-01-09T07:50:59.238Z,0.80
2023-01-09T07:53:28.423Z,0.70
2023-01-09T07:55:56.245Z,1.00
2023-01-09T07:58:24.209Z,0.90
2023-01-09T08:00:52.177Z,0.70
2023-01-09T08:03:20.116Z,0.80
2023-01-09T08:05:49.779Z,0.90
2023-01-09T08:08:19.126Z,0.80
2023-01-09T08:10:48.318Z,0.80
2023-01-09T08:13:16.152Z,0.90
2023-01-09T08:15:44.009Z,1.00
2023-01-09T08:18:11.814Z,0.80
2023-01-09T08:20:39.689Z,0.73
2023-01-09T08:23:07.431Z,0.80
2023-01-09T08:25:35.196Z,0.80
2023-01-09T08:28:04.387Z,0.80
2023-01-09T08:30:32.238Z,0.60
2023-01-09T08:33:00.162Z,1.00
2023-01-09T08:35:27.956Z,0.90
2023-01-09T08:37:55.760Z,0.97
2023-01-09T08:40:23.762Z,0.67
2023-01-09T08:43:17.422Z,0.80
2023-01-09T08:46:04.291Z,0.70
2023-01-09T08:48:32.269Z,0.80
2023-01-09T08:51:00.065Z,0.70
2023-01-09T08:53:28.450Z,0.60
2023-01-09T08:55:56.330Z,0.90
2023-01-09T08:58:24.311Z,0.80
2023-01-09T09:00:53.551Z,1.00
2023-01-09T09:03:21.703Z,0.90
2023-01-09T09:05:49.530Z,0.83
2023-01-09T09:08:17.468Z,1.00
2023-01-09T09:10:45.595Z,0.60
2023-01-09T09:13:13.640Z,0.90
2023-01-09T09:15:41.484Z,1.30
2023-01-09T09:18:10.962Z,0.67
2023-01-09T09:20:40.041Z,0.70
2023-01-09T09:23:08.799Z,0.73
2023-01-09T09:25:38.288Z,0.70
2023-01-09T09:28:06.915Z,0.57
2023-01-09T09:30:35.062Z,0.50
2023-01-09T09:33:04.557Z,0.83
2023-01-09T09:35:34.895Z,0.60
2023-01-09T09:38:05.554Z,0.60
2023-01-09T09:41:05.632Z,0.60
2023-01-09T09:44:11.391Z,0.70
2023-01-09T09:46:45.887Z,0.67
2023-01-09T09:49:19.448Z,0.40
2023-01-09T09:52:09.397Z,0.50
2023-01-09T09:54:42.247Z,0.50
2023-01-09T09:57:16.665Z,0.77
2023-01-09T09:59:48.219Z,0.70
2023-01-09T10:02:27.055Z,0.30
2023-01-09T10:05:01.429Z,0.60
2023-01-09T10:07:38.871Z,0.60
2023-01-09T10:10:15.741Z,0.90
2023-01-09T10:12:52.477Z,0.40
2023-01-09T10:15:27.877Z,0.50
2023-01-09T10:18:08.978Z,0.57
2023-01-09T10:20:55.313Z,0.90
2023-01-09T10:23:44.312Z,0.50
2023-01-09T10:26:17.826Z,0.57
2023-01-09T10:29:05.785Z,0.70
2023-01-09T10:31:45.177Z,0.67
2023-01-09T10:34:24.843Z,0.73
2023-01-09T10:37:03.055Z,0.90
2023-01-09T10:39:38.331Z,0.40
2023-01-09T10:42:12.899Z,0.77
2023-01-09T10:44:49.013Z,0.70
2023-01-09T10:47:22.964Z,0.70
2023-01-09T10:49:53.122Z,0.50
2023-01-09T10:52:34.981Z,0.70
2023-01-09T10:55:16.788Z,0.60
2023-01-09T10:57:46.710Z,0.60
2023-01-09T11:00:18.669Z,1.00
2023-01-09T11:02:46.582Z,0.90
2023-01-09T11:05:18.759Z,2.87
2023-01-09T11:07:50.935Z,0.60
2023-01-09T11:10:22.972Z,0.77
2023-01-09T11:12:51.019Z,0.90
2023-01-09T11:15:29.036Z,0.80
2023-01-09T11:18:18.993Z,0.73
2023-01-09T11:20:46.944Z,0.80
2023-01-09T11:23:32.886Z,0.90
2023-01-09T11:26:03.917Z,1.00
2023-01-09T11:28:31.873Z,0.80
2023-01-09T11:31:01.398Z,0.70
2023-01-09T11:33:31.455Z,0.80
2023-01-09T11:36:05.072Z,0.60
2023-01-09T11:38:45.576Z,0.90
2023-01-09T11:41:19.918Z,0.50
2023-01-09T11:43:49.953Z,0.67
2023-01-09T11:46:39.493Z,0.77
2023-01-09T11:49:23.297Z,0.70
2023-01-09T11:52:14.781Z,0.90
2023-01-09T11:54:46.805Z,0.80
2023-01-09T11:57:16.725Z,0.80
2023-01-09T11:59:44.838Z,0.70
2023-01-09T12:02:53.571Z,1.00
2023-01-09T12:05:36.835Z,0.80
2023-01-09T12:08:24.251Z,0.60
2023-01-09T12:11:18.723Z,0.70
2023-01-09T12:13:59.610Z,0.60
2023-01-09T12:16:35.962Z,1.10
2023-01-09T12:19:17.271Z,0.80
2023-01-09T12:21:52.473Z,0.70
2023-01-09T12:24:40.804Z,0.70
2023-01-09T12:27:25.208Z,0.93
2023-01-09T12:30:19.363Z,0.70
2023-01-09T12:33:05.999Z,0.70
2023-01-09T12:35:41.346Z,0.53
2023-01-09T12:38:37.960Z,0.57
2023-01-09T12:41:35.763Z,0.93
2023-01-09T12:44:30.766Z,1.10
2023-01-09T12:47:20.032Z,0.87
2023-01-09T12:49:56.045Z,1.00
2023-01-09T12:52:27.286Z,1.17
2023-01-09T12:55:00.911Z,0.80
2023-01-09T12:57:33.761Z,1.07
2023-01-09T13:00:05.797Z,1.00
2023-01-09T13:02:41.973Z,0.80
2023-01-09T13:05:17.422Z,0.70
2023-01-09T13:07:50.973Z,0.67
2023-01-09T13:10:24.321Z,0.70
2023-01-09T13:12:54.791Z,0.80
2023-01-09T13:15:31.745Z,0.70
2023-01-09T13:18:08.495Z,0.73
2023-01-09T13:20:43.303Z,0.90
2023-01-09T13:23:18.902Z,0.70
2023-01-09T13:25:49.679Z,0.90
2023-01-09T13:28:21.943Z,0.67
2023-01-09T13:31:03.181Z,0.60
2023-01-09T13:33:35.997Z,0.80
2023-01-09T13:36:04.936Z,0.47
2023-01-09T13:38:35.208Z,0.80
2023-01-09T13:41:32.471Z,0.70
2023-01-09T13:44:03.820Z,0.90
2023-01-09T13:46:38.346Z,0.40
2023-01-09T13:49:08.814Z,0.60
2023-01-09T13:51:59.884Z,0.77
2023-01-09T13:55:00.828Z,0.50
2023-01-09T13:57:31.759Z,0.60
2023-01-09T14:00:37.969Z,0.70
2023-01-09T14:03:16.947Z,0.57
2023-01-09T14:06:13.122Z,0.40
2023-01-09T14:08:43.100Z,0.50
2023-01-09T14:11:19.827Z,0.50
2023-01-09T14:13:53.259Z,0.60
2023-01-09T14:16:24.720Z,0.40
2023-01-09T14:18:57.425Z,0.37
2023-01-09T14:21:27.252Z,0.77
2023-01-09T14:24:04.390Z,0.63
2023-01-09T14:26:45.871Z,0.50
2023-01-09T14:29:40.045Z,0.50
2023-01-09T14:32:43.305Z,0.40
2023-01-09T14:35:19.034Z,0.50
2023-01-09T14:37:59.432Z,0.60
2023-01-09T14:40:27.403Z,0.57
2023-01-09T14:43:00.585Z,0.43
2023-01-09T14:45:29.204Z,0.57
2023-01-09T14:48:01.690Z,1.00
2023-01-09T14:50:34.432Z,0.80
2023-01-09T14:53:06.757Z,0.63
2023-01-09T14:55:44.480Z,0.50
2023-01-09T14:58:13.716Z,0.40
2023-01-09T15:00:50.100Z,0.73
2023-01-09T15:03:18.438Z,0.50
2023-01-09T15:05:48.008Z,0.60
2023-01-09T15:08:21.706Z,0.60
2023-01-09T15:10:52.043Z,0.60
2023-01-09T15:13:29.195Z,0.70
2023-01-09T15:15:57.175Z,0.60
2023-01-09T15:18:27.245Z,0.70
2023-01-09T15:20:59.356Z,0.50
2023-01-09T15:23:30.346Z,0.50
2023-01-09T15:26:12.740Z,0.70
2023-01-09T15:28:43.705Z,0.70
2023-01-09T15:31:16.365Z,0.60
2023-01-09T15:33:46.803Z,0.50
2023-01-09T15:36:18.547Z,0.47
2023-01-09T15:38:49.487Z,0.30
2023-01-09T15:41:40.596Z,0.60
2023-01-09T15:44:15.363Z,0.50
2023-01-09T15:46:46.321Z,0.40
2023-01-09T15:49:15.376Z,0.50
2023-01-09T15:51:45.454Z,0.50
2023-01-09T15:54:18.185Z,0.60
2023-01-09T15:56:46.957Z,0.50
2023-01-09T15:59:25.090Z,0.70
2023-01-09T16:02:19.633Z,0.60
2023-01-09T16:04:48.535Z,0.63
2023-01-09T16:07:19.657Z,0.60
2023-01-09T16:09:52.666Z,0.50
2023-01-09T16:12:23.708Z,0.60
2023-01-09T16:14:53.793Z,0.63
2023-01-09T16:17:26.392Z,0.50
2023-01-09T16:19:58.099Z,1.77
2023-01-09T16:22:28.330Z,0.50
2023-01-09T16:24:59.494Z,1.17
2023-01-09T16:27:30.275Z,0.70
2023-01-09T16:29:59.546Z,0.40
2023-01-09T16:32:30.509Z,0.70
2023-01-09T16:35:00.493Z,0.53
2023-01-09T16:37:29.091Z,0.80
2023-01-09T16:40:26.887Z,0.60
2023-01-09T16:43:05.419Z,0.77
2023-01-09T16:45:36.253Z,0.50
2023-01-09T16:48:11.278Z,0.63
2023-01-09T16:50:40.234Z,0.70
2023-01-09T16:53:15.393Z,0.70
2023-01-09T16:55:44.940Z,0.80
2023-01-09T16:58:18.411Z,0.90
2023-01-09T17:00:48.144Z,0.87
2023-01-09T17:03:17.096Z,0.70
2023-01-09T17:05:45.401Z,0.60
2023-01-09T17:08:21.849Z,0.70
2023-01-09T17:10:51.646Z,1.00
2023-01-09T17:13:19.569Z,0.90
2023-01-09T17:15:47.800Z,0.87
2023-01-09T17:18:16.644Z,1.00
2023-01-09T17:20:47.325Z,0.73
2023-01-09T17:23:15.885Z,0.80
2023-01-09T17:26:02.042Z,0.90
2023-01-09T17:28:34.604Z,1.30
2023-01-09T17:31:05.861Z,0.80
2023-01-09T17:33:34.638Z,1.10
2023-01-09T17:36:03.981Z,0.80
2023-01-09T17:38:31.821Z,0.80
2023-01-09T17:40:59.755Z,0.90
2023-01-09T17:43:27.570Z,1.20
2023-01-09T17:45:57.154Z,1.17
2023-01-09T17:48:25.256Z,1.10
2023-01-09T17:50:53.184Z,1.10
2023-01-09T17:53:22.719Z,1.20
2023-01-09T17:55:50.706Z,1.07
2023-01-09T17:58:25.882Z,1.40
2023-01-09T18:00:53.965Z,1.13
2023-01-09T18:03:25.849Z,1.00
2023-01-09T18:05:53.926Z,1.50
2023-01-09T18:08:21.752Z,0.80
2023-01-09T18:10:50.569Z,1.00
2023-01-09T18:13:18.719Z,1.27
2023-01-09T18:15:47.691Z,1.40
2023-01-09T18:18:16.192Z,1.00
2023-01-09T18:20:47.788Z,1.00
2023-01-09T18:23:16.938Z,1.00
2023-01-09T18:25:45.291Z,0.80
2023-01-09T18:28:15.440Z,1.20
2023-01-09T18:30:45.426Z,1.40
2023-01-09T18:33:14.039Z,1.20
2023-01-09T18:35:42.223Z,0.80
2023-01-09T18:38:12.211Z,0.70
2023-01-09T18:40:41.592Z,0.97
2023-01-09T18:43:11.339Z,0.90
2023-01-09T18:45:39.926Z,0.87
2023-01-09T18:48:09.506Z,0.90
2023-01-09T18:50:37.374Z,0.80
2023-01-09T18:53:06.240Z,0.90
2023-01-09T18:55:37.473Z,1.10
2023-01-09T18:58:06.255Z,0.60
2023-01-09T19:00:34.904Z,0.63
2023-01-09T19:03:02.750Z,1.00
2023-01-09T19:05:33.052Z,1.20
2023-01-09T19:08:00.860Z,1.30
2023-01-09T19:10:28.661Z,1.30
2023-01-09T19:12:59.026Z,0.73
2023-01-09T19:15:29.149Z,0.93
2023-01-09T19:17:58.364Z,1.00
2023-01-09T19:20:26.290Z,1.20
2023-01-09T19:22:56.634Z,1.20
2023-01-09T19:25:24.552Z,0.97
2023-01-09T19:27:53.400Z,1.27
2023-01-09T19:30:22.851Z,1.17
2023-01-09T19:32:50.705Z,1.20
2023-01-09T19:35:18.556Z,1.20
2023-01-09T19:37:46.371Z,1.30
2023-01-09T19:40:14.706Z,1.50
2023-01-09T19:42:42.536Z,1.20
2023-01-09T19:45:11.115Z,1.37
2023-01-09T19:47:40.334Z,1.17
2023-01-09T19:50:09.323Z,1.57
2023-01-09T19:52:37.518Z,1.10
2023-01-09T19:55:06.025Z,1.10
2023-01-09T19:57:33.788Z,1.20
2023-01-09T20:00:01.574Z,1.10
2023-01-09T20:02:29.564Z,1.10
2023-01-09T20:04:58.671Z,1.20
2023-01-09T20:07:26.595Z,0.67
2023-01-09T20:09:54.431Z,1.07
2023-01-09T20:12:22.369Z,1.00
2023-01-09T20:14:50.292Z,0.97
2023-01-09T20:17:19.639Z,1.07
2023-01-09T20:19:47.645Z,0.80
2023-01-09T20:22:16.768Z,1.30
2023-01-09T20:24:44.585Z,0.93
2023-01-09T20:27:12.373Z,1.00
2023-01-09T20:29:40.240Z,1.00
2023-01-09T20:32:09.811Z,1.10
2023-01-09T20:34:37.689Z,1.03
2023-01-09T20:37:05.646Z,1.03
2023-01-09T20:39:34.908Z,1.03
2023-01-09T20:42:02.759Z,1.20
2023-01-09T20:44:30.835Z,1.20
2023-01-09T20:46:58.999Z,1.00
2023-01-09T20:49:26.816Z,1.00
2023-01-09T20:51:54.632Z,1.13
2023-01-09T20:54:23.188Z,1.27
2023-01-09T20:56:53.507Z,1.10
2023-01-09T20:59:22.074Z,1.17
2023-01-09T21:01:50.489Z,0.93
2023-01-09T21:04:21.135Z,0.90
2023-01-09T21:06:50.203Z,0.70
2023-01-09T21:09:18.876Z,0.90
2023-01-09T21:11:46.819Z,1.10
2023-01-09T21:14:16.084Z,1.30
2023-01-09T21:16:47.924Z,1.00
2023-01-09T21:19:21.659Z,0.90
2023-01-09T21:21:51.605Z,1.33
2023-01-09T21:24:20.827Z,0.90
2023-01-09T21:26:48.638Z,1.10
2023-01-09T21:29:17.846Z,1.00
2023-01-09T21:31:45.814Z,1.03
2023-01-09T21:34:14.832Z,1.10
2023-01-09T21:36:44.792Z,0.90
2023-01-09T21:39:12.648Z,1.45
2023-01-09T21:41:57.989Z,1.30
2023-01-09T21:44:45.082Z,1.10
2023-01-09T21:47:14.027Z,1.13
2023-01-09T21:49:43.687Z,1.50
2023-01-09T21:52:12.833Z,0.90
2023-01-09T21:54:41.505Z,1.20
2023-01-09T21:57:09.425Z,0.90
2023-01-09T21:59:38.845Z,1.00
2023-01-09T22:02:06.909Z,1.37
2023-01-09T22:04:34.687Z,1.03
2023-01-09T22:07:02.626Z,0.93
2023-01-09T22:09:30.452Z,1.30
2023-01-09T22:11:58.553Z,1.23
2023-01-09T22:14:29.593Z,1.20
2023-01-09T22:16:58.961Z,1.53
2023-01-09T22:19:29.394Z,0.90
2023-01-09T22:21:57.575Z,1.10
2023-01-09T22:24:25.660Z,1.00
2023-01-09T22:26:56.132Z,1.10
2023-01-09T22:29:24.803Z,1.20
2023-01-09T22:31:53.325Z,1.30
2023-01-09T22:34:22.706Z,1.10
2023-01-09T22:36:50.574Z,1.30
2023-01-09T22:39:21.112Z,1.20
2023-01-09T22:41:52.392Z,1.00
2023-01-09T22:44:20.697Z,1.23
2023-01-09T22:46:48.618Z,1.30
2023-01-09T22:49:16.981Z,1.20
2023-01-09T22:51:46.509Z,1.00
2023-01-09T22:54:14.451Z,1.23
2023-01-09T22:56:42.489Z,1.10
2023-01-09T22:59:10.431Z,1.20
2023-01-09T23:01:38.661Z,1.20
2023-01-09T23:04:06.962Z,1.10
2023-01-09T23:06:35.005Z,1.30
2023-01-09T23:09:04.461Z,1.27
2023-01-09T23:11:50.182Z,1.30
2023-01-09T23:14:19.112Z,1.30
2023-01-09T23:16:47.177Z,1.20
2023-01-09T23:19:15.680Z,1.27
2023-01-09T23:21:44.605Z,1.10
2023-01-09T23:24:19.163Z,1.20
2023-01-09T23:26:47.640Z,1.20
2023-01-09T23:29:16.036Z,1.33
2023-01-09T23:31:43.998Z,1.60
2023-01-09T23:34:15.554Z,1.77
2023-01-09T23:36:43.567Z,1.10
2023-01-09T23:39:12.121Z,1.37
2023-01-09T23:41:59.789Z,1.00
2023-01-09T23:44:27.754Z,1.50
2023-01-09T23:46:55.652Z,1.47
2023-01-09T23:49:24.543Z,1.10
2023-01-09T23:51:55.294Z,1.43
2023-01-09T23:54:23.090Z,1.60
2023-01-09T23:56:53.445Z,1.23
2023-01-09T23:59:21.367Z,1.30
